sensor_id;sensor_type;location;lat;lon;timestamp;P1;durP1;ratioP1;P2;durP2;ratioP2
763;SDS011;5393;48.728;9.140;2022-09-01T00:01:15;19.23;;;17.37;;
763;SDS011;5393;48.728;9.140;2022-09-01T00:04:05;17.50;;;16.00;;
763;SDS011;5393;48.728;9.140;2022-09-01T00:06:51;18.97;;;17.17;;
763;SDS011;5393;48.728;9.140;2022-09-01T00:09:37;18.73;;;16.93;;
763;SDS011;5393;48.728;9.140;2022-09-01T00:12:22;17.07;;;15.67;;
763;SDS011;5393;48.728;9.140;2022-09-01T00:15:08;17.77;;;16.07;;
763;SDS011;5393;48.728;9.140;2022-09-01T00:17:54;16.37;;;14.97;;
763;SDS011;5393;48.728;9.140;2022-09-01T00:20:39;15.70;;;14.30;;
763;SDS011;5393;48.728;9.140;2022-09-01T00:23:27;16.30;;;14.80;;
763;SDS011;5393;48.728;9.140;2022-09-01T00:26:12;17.17;;;15.67;;
763;SDS011;5393;48.728;9.140;2022-09-01T00:28:57;17.27;;;15.77;;
763;SDS011;5393;48.728;9.140;2022-09-01T00:31:42;17.87;;;16.07;;
763;SDS011;5393;48.728;9.140;2022-09-01T00:34:27;18.40;;;16.80;;
763;SDS011;5393;48.728;9.140;2022-09-01T00:37:11;16.50;;;15.00;;
763;SDS011;5393;48.728;9.140;2022-09-01T00:39:56;19.13;;;17.40;;
763;SDS011;5393;48.728;9.140;2022-09-01T00:42:41;19.20;;;17.40;;
763;SDS011;5393;48.728;9.140;2022-09-01T00:45:27;15.67;;;14.37;;
763;SDS011;5393;48.728;9.140;2022-09-01T00:48:13;15.57;;;14.10;;
763;SDS011;5393;48.728;9.140;2022-09-01T00:50:58;16.90;;;15.30;;
763;SDS011;5393;48.728;9.140;2022-09-01T00:53:43;18.07;;;16.47;;
763;SDS011;5393;48.728;9.140;2022-09-01T00:56:28;16.70;;;15.00;;
763;SDS011;5393;48.728;9.140;2022-09-01T00:59:15;16.97;;;15.40;;
763;SDS011;5393;48.728;9.140;2022-09-01T01:02:00;17.80;;;16.20;;
763;SDS011;5393;48.728;9.140;2022-09-01T01:04:45;17.70;;;15.90;;
763;SDS011;5393;48.728;9.140;2022-09-01T01:07:29;16.13;;;14.77;;
763;SDS011;5393;48.728;9.140;2022-09-01T01:10:17;16.67;;;15.10;;
763;SDS011;5393;48.728;9.140;2022-09-01T01:13:05;19.07;;;17.30;;
763;SDS011;5393;48.728;9.140;2022-09-01T01:15:51;15.93;;;14.53;;
763;SDS011;5393;48.728;9.140;2022-09-01T01:18:35;16.63;;;15.23;;
763;SDS011;5393;48.728;9.140;2022-09-01T01:21:28;18.83;;;16.97;;
763;SDS011;5393;48.728;9.140;2022-09-01T01:24:34;18.70;;;17.00;;
763;SDS011;5393;48.728;9.140;2022-09-01T01:27:19;16.17;;;14.57;;
763;SDS011;5393;48.728;9.140;2022-09-01T01:30:04;17.60;;;16.10;;
763;SDS011;5393;48.728;9.140;2022-09-01T01:32:53;15.37;;;14.07;;
763;SDS011;5393;48.728;9.140;2022-09-01T01:35:40;17.00;;;15.27;;
763;SDS011;5393;48.728;9.140;2022-09-01T01:38:25;16.40;;;15.00;;
763;SDS011;5393;48.728;9.140;2022-09-01T01:41:10;16.77;;;15.10;;
763;SDS011;5393;48.728;9.140;2022-09-01T01:43:56;18.03;;;16.30;;
763;SDS011;5393;48.728;9.140;2022-09-01T01:46:42;17.47;;;15.97;;
763;SDS011;5393;48.728;9.140;2022-09-01T01:49:28;15.83;;;14.33;;
763;SDS011;5393;48.728;9.140;2022-09-01T01:52:13;16.10;;;14.60;;
763;SDS011;5393;48.728;9.140;2022-09-01T01:55:00;17.60;;;16.00;;
763;SDS011;5393;48.728;9.140;2022-09-01T01:57:45;17.60;;;16.00;;
763;SDS011;5393;48.728;9.140;2022-09-01T02:00:33;19.20;;;17.23;;
763;SDS011;5393;48.728;9.140;2022-09-01T02:03:19;18.80;;;16.97;;
763;SDS011;5393;48.728;9.140;2022-09-01T02:06:05;19.10;;;17.30;;
763;SDS011;5393;48.728;9.140;2022-09-01T02:08:52;17.57;;;16.07;;
763;SDS011;5393;48.728;9.140;2022-09-01T02:11:40;16.07;;;14.57;;
763;SDS011;5393;48.728;9.140;2022-09-01T02:14:25;15.87;;;14.47;;
763;SDS011;5393;48.728;9.140;2022-09-01T02:17:09;17.93;;;16.23;;
763;SDS011;5393;48.728;9.140;2022-09-01T02:19:53;17.40;;;15.83;;
763;SDS011;5393;48.728;9.140;2022-09-01T02:22:41;16.37;;;14.87;;
763;SDS011;5393;48.728;9.140;2022-09-01T02:25:27;16.83;;;15.30;;
763;SDS011;5393;48.728;9.140;2022-09-01T02:28:12;17.60;;;15.67;;
763;SDS011;5393;48.728;9.140;2022-09-01T02:30:58;16.90;;;15.40;;
763;SDS011;5393;48.728;9.140;2022-09-01T02:33:46;17.97;;;16.37;;
763;SDS011;5393;48.728;9.140;2022-09-01T02:36:31;20.30;;;18.23;;
763;SDS011;5393;48.728;9.140;2022-09-01T02:39:27;18.97;;;17.17;;
763;SDS011;5393;48.728;9.140;2022-09-01T02:42:12;19.60;;;17.80;;
763;SDS011;5393;48.728;9.140;2022-09-01T02:44:57;18.07;;;16.47;;
763;SDS011;5393;48.728;9.140;2022-09-01T02:47:42;20.20;;;18.30;;
763;SDS011;5393;48.728;9.140;2022-09-01T02:50:29;18.90;;;17.07;;
763;SDS011;5393;48.728;9.140;2022-09-01T02:53:15;18.53;;;16.63;;
763;SDS011;5393;48.728;9.140;2022-09-01T02:56:01;18.50;;;16.80;;
763;SDS011;5393;48.728;9.140;2022-09-01T02:58:46;19.20;;;17.40;;
763;SDS011;5393;48.728;9.140;2022-09-01T03:01:31;20.37;;;18.60;;
763;SDS011;5393;48.728;9.140;2022-09-01T03:04:16;18.50;;;16.83;;
763;SDS011;5393;48.728;9.140;2022-09-01T03:07:02;20.10;;;18.20;;
763;SDS011;5393;48.728;9.140;2022-09-01T03:09:47;19.50;;;17.60;;
763;SDS011;5393;48.728;9.140;2022-09-01T03:12:31;18.90;;;17.20;;
763;SDS011;5393;48.728;9.140;2022-09-01T03:15:16;19.83;;;18.03;;
763;SDS011;5393;48.728;9.140;2022-09-01T03:18:01;19.50;;;17.63;;
763;SDS011;5393;48.728;9.140;2022-09-01T03:20:46;21.20;;;19.00;;
763;SDS011;5393;48.728;9.140;2022-09-01T03:23:33;19.40;;;17.70;;
763;SDS011;5393;48.728;9.140;2022-09-01T03:26:19;21.03;;;19.13;;
763;SDS011;5393;48.728;9.140;2022-09-01T03:29:04;18.93;;;17.13;;
763;SDS011;5393;48.728;9.140;2022-09-01T03:31:49;18.90;;;17.00;;
763;SDS011;5393;48.728;9.140;2022-09-01T03:34:33;22.17;;;20.17;;
763;SDS011;5393;48.728;9.140;2022-09-01T03:37:19;21.30;;;19.30;;
763;SDS011;5393;48.728;9.140;2022-09-01T03:40:06;21.60;;;19.60;;
763;SDS011;5393;48.728;9.140;2022-09-01T03:42:52;19.80;;;17.80;;
763;SDS011;5393;48.728;9.140;2022-09-01T03:45:37;21.57;;;19.37;;
763;SDS011;5393;48.728;9.140;2022-09-01T03:48:22;20.00;;;18.10;;
763;SDS011;5393;48.728;9.140;2022-09-01T03:51:10;17.80;;;16.03;;
763;SDS011;5393;48.728;9.140;2022-09-01T03:53:57;19.40;;;17.70;;
763;SDS011;5393;48.728;9.140;2022-09-01T03:56:42;19.73;;;17.70;;
763;SDS011;5393;48.728;9.140;2022-09-01T03:59:27;20.07;;;17.87;;
763;SDS011;5393;48.728;9.140;2022-09-01T04:02:12;19.73;;;17.70;;
763;SDS011;5393;48.728;9.140;2022-09-01T04:04:57;21.37;;;19.27;;
763;SDS011;5393;48.728;9.140;2022-09-01T04:07:43;18.37;;;16.67;;
763;SDS011;5393;48.728;9.140;2022-09-01T04:10:29;21.43;;;19.53;;
763;SDS011;5393;48.728;9.140;2022-09-01T04:13:19;19.73;;;17.93;;
763;SDS011;5393;48.728;9.140;2022-09-01T04:16:05;21.57;;;19.53;;
763;SDS011;5393;48.728;9.140;2022-09-01T04:19:13;21.07;;;19.00;;
763;SDS011;5393;48.728;9.140;2022-09-01T04:22:02;22.40;;;20.20;;
763;SDS011;5393;48.728;9.140;2022-09-01T04:24:47;20.90;;;19.00;;
763;SDS011;5393;48.728;9.140;2022-09-01T04:27:33;23.87;;;21.60;;
763;SDS011;5393;48.728;9.140;2022-09-01T04:30:23;23.90;;;21.50;;
763;SDS011;5393;48.728;9.140;2022-09-01T04:33:09;23.50;;;21.20;;
763;SDS011;5393;48.728;9.140;2022-09-01T04:35:54;22.17;;;20.17;;
763;SDS011;5393;48.728;9.140;2022-09-01T04:38:39;21.47;;;19.50;;
763;SDS011;5393;48.728;9.140;2022-09-01T04:41:24;22.77;;;20.67;;
763;SDS011;5393;48.728;9.140;2022-09-01T04:44:10;25.33;;;22.97;;
763;SDS011;5393;48.728;9.140;2022-09-01T04:46:54;22.80;;;20.60;;
763;SDS011;5393;48.728;9.140;2022-09-01T04:49:39;21.33;;;19.27;;
763;SDS011;5393;48.728;9.140;2022-09-01T04:52:25;21.73;;;19.73;;
763;SDS011;5393;48.728;9.140;2022-09-01T04:55:10;20.80;;;18.90;;
763;SDS011;5393;48.728;9.140;2022-09-01T04:58:00;21.60;;;19.43;;
763;SDS011;5393;48.728;9.140;2022-09-01T05:00:45;20.10;;;18.20;;
763;SDS011;5393;48.728;9.140;2022-09-01T05:03:31;19.83;;;18.03;;
763;SDS011;5393;48.728;9.140;2022-09-01T05:06:17;21.40;;;19.30;;
763;SDS011;5393;48.728;9.140;2022-09-01T05:09:02;19.80;;;17.90;;
763;SDS011;5393;48.728;9.140;2022-09-01T05:11:47;20.80;;;18.97;;
763;SDS011;5393;48.728;9.140;2022-09-01T05:14:32;19.73;;;17.73;;
763;SDS011;5393;48.728;9.140;2022-09-01T05:17:17;19.87;;;18.13;;
763;SDS011;5393;48.728;9.140;2022-09-01T05:20:01;20.57;;;18.50;;
763;SDS011;5393;48.728;9.140;2022-09-01T05:22:46;19.60;;;17.60;;
763;SDS011;5393;48.728;9.140;2022-09-01T05:25:36;19.43;;;17.67;;
763;SDS011;5393;48.728;9.140;2022-09-01T05:28:21;18.07;;;16.33;;
763;SDS011;5393;48.728;9.140;2022-09-01T05:31:09;19.80;;;17.90;;
763;SDS011;5393;48.728;9.140;2022-09-01T05:33:55;17.93;;;16.33;;
763;SDS011;5393;48.728;9.140;2022-09-01T05:36:43;17.70;;;16.10;;
763;SDS011;5393;48.728;9.140;2022-09-01T05:39:28;17.27;;;15.70;;
763;SDS011;5393;48.728;9.140;2022-09-01T05:42:13;17.20;;;15.53;;
763;SDS011;5393;48.728;9.140;2022-09-01T05:44:58;17.77;;;16.03;;
763;SDS011;5393;48.728;9.140;2022-09-01T05:47:44;16.00;;;14.50;;
763;SDS011;5393;48.728;9.140;2022-09-01T05:50:29;17.03;;;15.47;;
763;SDS011;5393;48.728;9.140;2022-09-01T05:53:14;18.53;;;16.60;;
763;SDS011;5393;48.728;9.140;2022-09-01T05:56:00;19.33;;;17.43;;
763;SDS011;5393;48.728;9.140;2022-09-01T05:58:49;17.90;;;16.20;;
763;SDS011;5393;48.728;9.140;2022-09-01T06:01:34;17.80;;;16.23;;
763;SDS011;5393;48.728;9.140;2022-09-01T06:04:23;18.83;;;17.13;;
763;SDS011;5393;48.728;9.140;2022-09-01T06:07:10;18.53;;;16.93;;
763;SDS011;5393;48.728;9.140;2022-09-01T06:09:56;18.40;;;16.70;;
763;SDS011;5393;48.728;9.140;2022-09-01T06:12:42;20.07;;;18.10;;
763;SDS011;5393;48.728;9.140;2022-09-01T06:15:28;18.80;;;17.10;;
763;SDS011;5393;48.728;9.140;2022-09-01T06:18:14;21.33;;;17.97;;
763;SDS011;5393;48.728;9.140;2022-09-01T06:21:02;17.90;;;16.20;;
763;SDS011;5393;48.728;9.140;2022-09-01T06:23:46;17.80;;;16.30;;
763;SDS011;5393;48.728;9.140;2022-09-01T06:26:37;18.77;;;16.87;;
763;SDS011;5393;48.728;9.140;2022-09-01T06:29:22;17.90;;;16.13;;
763;SDS011;5393;48.728;9.140;2022-09-01T06:32:07;18.23;;;16.53;;
763;SDS011;5393;48.728;9.140;2022-09-01T06:34:52;18.23;;;16.43;;
763;SDS011;5393;48.728;9.140;2022-09-01T06:37:41;15.60;;;14.10;;
763;SDS011;5393;48.728;9.140;2022-09-01T06:40:29;17.30;;;15.70;;
763;SDS011;5393;48.728;9.140;2022-09-01T06:43:15;17.60;;;15.93;;
763;SDS011;5393;48.728;9.140;2022-09-01T06:46:00;17.17;;;15.63;;
763;SDS011;5393;48.728;9.140;2022-09-01T06:48:46;17.10;;;15.50;;
763;SDS011;5393;48.728;9.140;2022-09-01T06:51:31;17.53;;;15.93;;
763;SDS011;5393;48.728;9.140;2022-09-01T06:54:16;15.93;;;14.37;;
763;SDS011;5393;48.728;9.140;2022-09-01T06:57:02;17.03;;;15.43;;
763;SDS011;5393;48.728;9.140;2022-09-01T06:59:47;17.07;;;15.40;;
763;SDS011;5393;48.728;9.140;2022-09-01T07:02:32;16.27;;;14.70;;
763;SDS011;5393;48.728;9.140;2022-09-01T07:05:17;18.07;;;16.30;;
763;SDS011;5393;48.728;9.140;2022-09-01T07:08:04;17.20;;;15.37;;
763;SDS011;5393;48.728;9.140;2022-09-01T07:10:53;17.77;;;16.17;;
763;SDS011;5393;48.728;9.140;2022-09-01T07:13:38;19.80;;;17.90;;
763;SDS011;5393;48.728;9.140;2022-09-01T07:16:24;15.57;;;14.13;;
763;SDS011;5393;48.728;9.140;2022-09-01T07:19:10;17.73;;;16.03;;
763;SDS011;5393;48.728;9.140;2022-09-01T07:21:58;15.23;;;13.90;;
763;SDS011;5393;48.728;9.140;2022-09-01T07:24:43;15.80;;;14.13;;
763;SDS011;5393;48.728;9.140;2022-09-01T07:27:29;15.80;;;14.30;;
763;SDS011;5393;48.728;9.140;2022-09-01T07:30:13;15.40;;;14.00;;
763;SDS011;5393;48.728;9.140;2022-09-01T07:32:59;16.57;;;15.00;;
763;SDS011;5393;48.728;9.140;2022-09-01T07:35:43;15.30;;;13.80;;
763;SDS011;5393;48.728;9.140;2022-09-01T07:38:28;13.00;;;11.83;;
763;SDS011;5393;48.728;9.140;2022-09-01T07:41:13;14.07;;;12.77;;
763;SDS011;5393;48.728;9.140;2022-09-01T07:43:57;14.10;;;12.60;;
763;SDS011;5393;48.728;9.140;2022-09-01T07:46:45;11.00;;;9.90;;
763;SDS011;5393;48.728;9.140;2022-09-01T07:49:32;8.60;;;7.70;;
763;SDS011;5393;48.728;9.140;2022-09-01T07:52:16;8.80;;;7.90;;
763;SDS011;5393;48.728;9.140;2022-09-01T07:55:02;8.83;;;8.03;;
763;SDS011;5393;48.728;9.140;2022-09-01T07:57:47;8.37;;;7.67;;
763;SDS011;5393;48.728;9.140;2022-09-01T08:00:31;8.13;;;7.33;;
763;SDS011;5393;48.728;9.140;2022-09-01T08:03:17;8.73;;;7.80;;
763;SDS011;5393;48.728;9.140;2022-09-01T08:06:06;9.87;;;8.97;;
763;SDS011;5393;48.728;9.140;2022-09-01T08:08:52;9.87;;;8.97;;
763;SDS011;5393;48.728;9.140;2022-09-01T08:11:37;9.90;;;8.90;;
763;SDS011;5393;48.728;9.140;2022-09-01T08:14:22;9.30;;;8.50;;
763;SDS011;5393;48.728;9.140;2022-09-01T08:17:06;12.03;;;10.93;;
763;SDS011;5393;48.728;9.140;2022-09-01T08:19:51;12.80;;;11.60;;
763;SDS011;5393;48.728;9.140;2022-09-01T08:22:36;11.13;;;10.03;;
763;SDS011;5393;48.728;9.140;2022-09-01T08:25:21;11.53;;;10.33;;
763;SDS011;5393;48.728;9.140;2022-09-01T08:28:06;9.53;;;8.70;;
763;SDS011;5393;48.728;9.140;2022-09-01T08:30:50;9.07;;;8.27;;
763;SDS011;5393;48.728;9.140;2022-09-01T08:33:38;9.97;;;9.07;;
763;SDS011;5393;48.728;9.140;2022-09-01T08:36:23;12.37;;;11.07;;
763;SDS011;5393;48.728;9.140;2022-09-01T08:39:08;10.00;;;9.10;;
763;SDS011;5393;48.728;9.140;2022-09-01T08:41:58;10.03;;;9.13;;
763;SDS011;5393;48.728;9.140;2022-09-01T08:44:59;10.03;;;8.80;;
763;SDS011;5393;48.728;9.140;2022-09-01T08:47:46;9.57;;;8.70;;
763;SDS011;5393;48.728;9.140;2022-09-01T08:50:31;10.60;;;9.70;;
763;SDS011;5393;48.728;9.140;2022-09-01T08:53:24;8.53;;;7.77;;
763;SDS011;5393;48.728;9.140;2022-09-01T08:56:09;9.07;;;8.27;;
763;SDS011;5393;48.728;9.140;2022-09-01T08:58:54;8.40;;;7.60;;
763;SDS011;5393;48.728;9.140;2022-09-01T09:01:55;8.27;;;7.53;;
763;SDS011;5393;48.728;9.140;2022-09-01T09:07:35;7.30;;;6.60;;
763;SDS011;5393;48.728;9.140;2022-09-01T09:18:47;7.57;;;6.87;;
763;SDS011;5393;48.728;9.140;2022-09-01T09:21:37;6.80;;;6.20;;
763;SDS011;5393;48.728;9.140;2022-09-01T09:27:34;5.37;;;4.80;;
763;SDS011;5393;48.728;9.140;2022-09-01T09:30:21;6.17;;;5.57;;
763;SDS011;5393;48.728;9.140;2022-09-01T09:33:06;6.70;;;5.60;;
763;SDS011;5393;48.728;9.140;2022-09-01T09:35:53;5.60;;;5.10;;
763;SDS011;5393;48.728;9.140;2022-09-01T09:38:40;5.37;;;4.87;;
763;SDS011;5393;48.728;9.140;2022-09-01T09:41:24;5.17;;;4.70;;
763;SDS011;5393;48.728;9.140;2022-09-01T09:46:54;4.50;;;4.10;;
763;SDS011;5393;48.728;9.140;2022-09-01T09:49:40;5.53;;;4.70;;
763;SDS011;5393;48.728;9.140;2022-09-01T09:52:24;4.67;;;4.27;;
763;SDS011;5393;48.728;9.140;2022-09-01T09:55:26;5.27;;;4.77;;
763;SDS011;5393;48.728;9.140;2022-09-01T09:58:11;5.83;;;5.33;;
763;SDS011;5393;48.728;9.140;2022-09-01T10:00:59;6.60;;;5.60;;
763;SDS011;5393;48.728;9.140;2022-09-01T10:03:46;5.10;;;4.60;;
763;SDS011;5393;48.728;9.140;2022-09-01T10:12:05;5.80;;;4.40;;
763;SDS011;5393;48.728;9.140;2022-09-01T10:14:54;4.77;;;4.37;;
763;SDS011;5393;48.728;9.140;2022-09-01T10:17:42;5.17;;;4.10;;
763;SDS011;5393;48.728;9.140;2022-09-01T10:20:27;4.23;;;3.83;;
763;SDS011;5393;48.728;9.140;2022-09-01T10:23:12;4.20;;;3.80;;
763;SDS011;5393;48.728;9.140;2022-09-01T10:26:39;4.03;;;3.73;;
763;SDS011;5393;48.728;9.140;2022-09-01T10:32:09;3.70;;;3.40;;
763;SDS011;5393;48.728;9.140;2022-09-01T10:34:54;3.23;;;2.93;;
763;SDS011;5393;48.728;9.140;2022-09-01T10:37:39;3.73;;;3.37;;
763;SDS011;5393;48.728;9.140;2022-09-01T10:43:26;3.90;;;3.57;;
763;SDS011;5393;48.728;9.140;2022-09-01T10:52:51;3.27;;;2.97;;
763;SDS011;5393;48.728;9.140;2022-09-01T10:55:24;3.30;;;3.00;;
763;SDS011;5393;48.728;9.140;2022-09-01T11:01:00;2.73;;;2.47;;
763;SDS011;5393;48.728;9.140;2022-09-01T11:03:51;3.43;;;2.70;;
763;SDS011;5393;48.728;9.140;2022-09-01T11:06:53;3.50;;;3.20;;
763;SDS011;5393;48.728;9.140;2022-09-01T11:09:41;3.10;;;2.80;;
763;SDS011;5393;48.728;9.140;2022-09-01T11:15:32;4.00;;;2.90;;
763;SDS011;5393;48.728;9.140;2022-09-01T11:18:25;3.20;;;2.90;;
763;SDS011;5393;48.728;9.140;2022-09-01T11:21:25;3.23;;;2.90;;
763;SDS011;5393;48.728;9.140;2022-09-01T11:44:55;2.90;;;2.70;;
763;SDS011;5393;48.728;9.140;2022-09-01T11:47:46;2.73;;;2.53;;
763;SDS011;5393;48.728;9.140;2022-09-01T11:50:34;3.30;;;3.00;;
763;SDS011;5393;48.728;9.140;2022-09-01T11:53:20;3.30;;;2.77;;
763;SDS011;5393;48.728;9.140;2022-09-01T11:56:16;2.97;;;2.67;;
763;SDS011;5393;48.728;9.140;2022-09-01T11:59:02;3.47;;;3.17;;
763;SDS011;5393;48.728;9.140;2022-09-01T12:01:47;3.00;;;2.80;;
763;SDS011;5393;48.728;9.140;2022-09-01T12:04:33;3.13;;;2.87;;
763;SDS011;5393;48.728;9.140;2022-09-01T12:10:19;3.10;;;2.80;;
763;SDS011;5393;48.728;9.140;2022-09-01T12:13:06;3.33;;;3.00;;
763;SDS011;5393;48.728;9.140;2022-09-01T12:15:55;3.57;;;3.27;;
763;SDS011;5393;48.728;9.140;2022-09-01T12:18:44;3.50;;;3.20;;
763;SDS011;5393;48.728;9.140;2022-09-01T12:21:31;2.90;;;2.67;;
763;SDS011;5393;48.728;9.140;2022-09-01T12:24:20;5.47;;;2.70;;
763;SDS011;5393;48.728;9.140;2022-09-01T12:27:05;2.80;;;2.60;;
763;SDS011;5393;48.728;9.140;2022-09-01T12:29:50;3.07;;;2.80;;
763;SDS011;5393;48.728;9.140;2022-09-01T12:32:35;2.80;;;2.60;;
763;SDS011;5393;48.728;9.140;2022-09-01T12:35:24;2.60;;;2.40;;
763;SDS011;5393;48.728;9.140;2022-09-01T12:41:20;3.37;;;2.30;;
763;SDS011;5393;48.728;9.140;2022-09-01T12:47:10;2.90;;;2.60;;
763;SDS011;5393;48.728;9.140;2022-09-01T12:52:53;3.50;;;2.50;;
763;SDS011;5393;48.728;9.140;2022-09-01T12:55:38;2.97;;;2.57;;
763;SDS011;5393;48.728;9.140;2022-09-01T12:58:23;2.97;;;2.60;;
763;SDS011;5393;48.728;9.140;2022-09-01T13:01:09;3.20;;;2.43;;
763;SDS011;5393;48.728;9.140;2022-09-01T13:04:11;3.10;;;2.80;;
763;SDS011;5393;48.728;9.140;2022-09-01T13:07:01;3.30;;;3.00;;
763;SDS011;5393;48.728;9.140;2022-09-01T13:09:46;3.27;;;2.97;;
763;SDS011;5393;48.728;9.140;2022-09-01T13:12:30;3.37;;;3.07;;
763;SDS011;5393;48.728;9.140;2022-09-01T13:15:15;3.30;;;3.00;;
763;SDS011;5393;48.728;9.140;2022-09-01T13:17:59;3.87;;;2.93;;
763;SDS011;5393;48.728;9.140;2022-09-01T13:20:44;5.90;;;3.30;;
763;SDS011;5393;48.728;9.140;2022-09-01T13:23:28;3.13;;;2.93;;
763;SDS011;5393;48.728;9.140;2022-09-01T13:26:13;2.70;;;2.50;;
763;SDS011;5393;48.728;9.140;2022-09-01T13:28:58;2.63;;;2.43;;
763;SDS011;5393;48.728;9.140;2022-09-01T13:31:43;3.07;;;2.77;;
763;SDS011;5393;48.728;9.140;2022-09-01T13:34:27;3.23;;;2.43;;
763;SDS011;5393;48.728;9.140;2022-09-01T13:37:12;2.93;;;2.50;;
763;SDS011;5393;48.728;9.140;2022-09-01T13:39:57;2.93;;;2.63;;
763;SDS011;5393;48.728;9.140;2022-09-01T13:42:42;2.50;;;2.30;;
763;SDS011;5393;48.728;9.140;2022-09-01T13:45:27;3.13;;;2.37;;
763;SDS011;5393;48.728;9.140;2022-09-01T13:48:12;2.70;;;2.50;;
763;SDS011;5393;48.728;9.140;2022-09-01T13:50:56;2.70;;;2.50;;
763;SDS011;5393;48.728;9.140;2022-09-01T13:53:41;3.17;;;2.80;;
763;SDS011;5393;48.728;9.140;2022-09-01T13:56:26;2.87;;;2.37;;
763;SDS011;5393;48.728;9.140;2022-09-01T13:59:10;2.63;;;2.43;;
763;SDS011;5393;48.728;9.140;2022-09-01T14:01:55;2.70;;;2.23;;
763;SDS011;5393;48.728;9.140;2022-09-01T14:04:39;2.40;;;2.20;;
763;SDS011;5393;48.728;9.140;2022-09-01T14:07:24;3.00;;;2.70;;
763;SDS011;5393;48.728;9.140;2022-09-01T14:10:09;3.13;;;2.87;;
763;SDS011;5393;48.728;9.140;2022-09-01T14:12:54;3.13;;;2.63;;
763;SDS011;5393;48.728;9.140;2022-09-01T14:15:38;2.77;;;2.57;;
763;SDS011;5393;48.728;9.140;2022-09-01T14:18:26;2.30;;;2.10;;
763;SDS011;5393;48.728;9.140;2022-09-01T14:21:15;3.30;;;2.60;;
763;SDS011;5393;48.728;9.140;2022-09-01T14:24:00;2.17;;;1.97;;
763;SDS011;5393;48.728;9.140;2022-09-01T14:26:45;2.70;;;2.50;;
763;SDS011;5393;48.728;9.140;2022-09-01T14:29:30;3.80;;;2.40;;
763;SDS011;5393;48.728;9.140;2022-09-01T14:32:15;3.37;;;2.30;;
763;SDS011;5393;48.728;9.140;2022-09-01T14:35:01;2.87;;;2.63;;
763;SDS011;5393;48.728;9.140;2022-09-01T14:37:47;2.77;;;2.40;;
763;SDS011;5393;48.728;9.140;2022-09-01T14:40:31;2.37;;;2.17;;
763;SDS011;5393;48.728;9.140;2022-09-01T14:43:16;2.00;;;1.80;;
763;SDS011;5393;48.728;9.140;2022-09-01T14:46:05;2.50;;;1.80;;
763;SDS011;5393;48.728;9.140;2022-09-01T14:48:52;2.20;;;2.00;;
763;SDS011;5393;48.728;9.140;2022-09-01T14:51:37;2.07;;;1.87;;
763;SDS011;5393;48.728;9.140;2022-09-01T14:54:22;4.67;;;1.80;;
763;SDS011;5393;48.728;9.140;2022-09-01T14:57:06;3.00;;;1.90;;
763;SDS011;5393;48.728;9.140;2022-09-01T14:59:51;2.03;;;1.73;;
763;SDS011;5393;48.728;9.140;2022-09-01T15:02:36;2.23;;;2.00;;
763;SDS011;5393;48.728;9.140;2022-09-01T15:05:21;3.20;;;2.00;;
763;SDS011;5393;48.728;9.140;2022-09-01T15:08:07;1.90;;;1.70;;
763;SDS011;5393;48.728;9.140;2022-09-01T15:10:51;2.70;;;1.80;;
763;SDS011;5393;48.728;9.140;2022-09-01T15:13:36;3.60;;;2.20;;
763;SDS011;5393;48.728;9.140;2022-09-01T15:16:22;2.30;;;1.90;;
763;SDS011;5393;48.728;9.140;2022-09-01T15:19:08;2.63;;;1.70;;
763;SDS011;5393;48.728;9.140;2022-09-01T15:21:53;2.00;;;1.80;;
763;SDS011;5393;48.728;9.140;2022-09-01T15:24:38;2.10;;;1.90;;
763;SDS011;5393;48.728;9.140;2022-09-01T15:27:23;2.30;;;2.03;;
763;SDS011;5393;48.728;9.140;2022-09-01T15:30:08;2.17;;;1.97;;
763;SDS011;5393;48.728;9.140;2022-09-01T15:32:59;2.40;;;1.90;;
763;SDS011;5393;48.728;9.140;2022-09-01T15:35:45;2.30;;;2.10;;
763;SDS011;5393;48.728;9.140;2022-09-01T15:38:29;2.47;;;2.20;;
763;SDS011;5393;48.728;9.140;2022-09-01T15:41:18;2.20;;;2.00;;
763;SDS011;5393;48.728;9.140;2022-09-01T15:44:05;2.17;;;1.93;;
763;SDS011;5393;48.728;9.140;2022-09-01T15:46:50;2.27;;;2.00;;
763;SDS011;5393;48.728;9.140;2022-09-01T15:49:34;4.60;;;2.10;;
763;SDS011;5393;48.728;9.140;2022-09-01T15:52:19;2.50;;;2.30;;
763;SDS011;5393;48.728;9.140;2022-09-01T15:55:04;2.40;;;2.20;;
763;SDS011;5393;48.728;9.140;2022-09-01T15:57:49;3.03;;;2.63;;
763;SDS011;5393;48.728;9.140;2022-09-01T16:00:35;2.57;;;2.20;;
763;SDS011;5393;48.728;9.140;2022-09-01T16:03:20;2.33;;;1.70;;
763;SDS011;5393;48.728;9.140;2022-09-01T16:06:06;2.80;;;2.60;;
763;SDS011;5393;48.728;9.140;2022-09-01T16:08:52;2.30;;;2.07;;
763;SDS011;5393;48.728;9.140;2022-09-01T16:11:38;2.20;;;2.00;;
763;SDS011;5393;48.728;9.140;2022-09-01T16:14:22;2.50;;;2.30;;
763;SDS011;5393;48.728;9.140;2022-09-01T16:17:12;2.30;;;2.07;;
763;SDS011;5393;48.728;9.140;2022-09-01T16:20:02;2.70;;;2.50;;
763;SDS011;5393;48.728;9.140;2022-09-01T16:22:50;2.53;;;2.33;;
763;SDS011;5393;48.728;9.140;2022-09-01T16:25:36;4.33;;;2.80;;
763;SDS011;5393;48.728;9.140;2022-09-01T16:28:24;2.60;;;2.40;;
763;SDS011;5393;48.728;9.140;2022-09-01T16:31:11;2.60;;;2.40;;
763;SDS011;5393;48.728;9.140;2022-09-01T16:33:56;2.40;;;2.20;;
763;SDS011;5393;48.728;9.140;2022-09-01T16:45:05;2.77;;;2.50;;
763;SDS011;5393;48.728;9.140;2022-09-01T16:50:44;3.70;;;3.10;;
763;SDS011;5393;48.728;9.140;2022-09-01T17:10:31;3.53;;;3.23;;
763;SDS011;5393;48.728;9.140;2022-09-01T17:16:33;3.47;;;3.17;;
763;SDS011;5393;48.728;9.140;2022-09-01T17:19:19;3.67;;;3.30;;
763;SDS011;5393;48.728;9.140;2022-09-01T17:22:11;3.83;;;3.43;;
763;SDS011;5393;48.728;9.140;2022-09-01T17:24:59;3.50;;;3.20;;
763;SDS011;5393;48.728;9.140;2022-09-01T17:30:30;3.20;;;2.90;;
763;SDS011;5393;48.728;9.140;2022-09-01T17:33:37;3.07;;;2.77;;
763;SDS011;5393;48.728;9.140;2022-09-01T17:42:30;3.07;;;2.87;;
763;SDS011;5393;48.728;9.140;2022-09-01T17:48:14;3.33;;;2.97;;
763;SDS011;5393;48.728;9.140;2022-09-01T17:53:54;3.20;;;2.90;;
763;SDS011;5393;48.728;9.140;2022-09-01T17:59:51;3.23;;;3.00;;
763;SDS011;5393;48.728;9.140;2022-09-01T18:05:33;3.63;;;3.33;;
763;SDS011;5393;48.728;9.140;2022-09-01T18:11:12;4.07;;;3.67;;
763;SDS011;5393;48.728;9.140;2022-09-01T18:14:02;3.67;;;3.30;;
763;SDS011;5393;48.728;9.140;2022-09-01T18:19:51;3.27;;;2.97;;
763;SDS011;5393;48.728;9.140;2022-09-01T18:22:40;3.37;;;3.10;;
763;SDS011;5393;48.728;9.140;2022-09-01T18:25:35;4.40;;;3.00;;
763;SDS011;5393;48.728;9.140;2022-09-01T18:28:21;3.37;;;3.00;;
763;SDS011;5393;48.728;9.140;2022-09-01T18:31:40;3.27;;;2.73;;
763;SDS011;5393;48.728;9.140;2022-09-01T18:34:50;4.87;;;3.40;;
763;SDS011;5393;48.728;9.140;2022-09-01T18:46:33;4.30;;;3.90;;
763;SDS011;5393;48.728;9.140;2022-09-01T18:58:17;4.07;;;3.67;;
763;SDS011;5393;48.728;9.140;2022-09-01T19:01:06;4.03;;;3.50;;
763;SDS011;5393;48.728;9.140;2022-09-01T19:03:53;5.67;;;3.47;;
763;SDS011;5393;48.728;9.140;2022-09-01T19:09:29;3.57;;;3.27;;
763;SDS011;5393;48.728;9.140;2022-09-01T19:21:00;6.73;;;4.20;;
763;SDS011;5393;48.728;9.140;2022-09-01T19:26:51;5.57;;;5.07;;
763;SDS011;5393;48.728;9.140;2022-09-01T19:29:43;6.00;;;4.50;;
763;SDS011;5393;48.728;9.140;2022-09-01T19:32:29;4.50;;;4.10;;
763;SDS011;5393;48.728;9.140;2022-09-01T19:35:15;3.63;;;3.33;;
763;SDS011;5393;48.728;9.140;2022-09-01T19:38:04;3.43;;;3.13;;
763;SDS011;5393;48.728;9.140;2022-09-01T19:40:49;3.50;;;3.20;;
763;SDS011;5393;48.728;9.140;2022-09-01T19:43:36;4.63;;;4.23;;
763;SDS011;5393;48.728;9.140;2022-09-01T19:46:28;3.70;;;3.40;;
763;SDS011;5393;48.728;9.140;2022-09-01T19:55:20;12.10;;;10.90;;
763;SDS011;5393;48.728;9.140;2022-09-01T20:01:14;6.00;;;5.30;;
763;SDS011;5393;48.728;9.140;2022-09-01T20:04:02;4.40;;;4.00;;
763;SDS011;5393;48.728;9.140;2022-09-01T20:06:49;4.80;;;4.13;;
763;SDS011;5393;48.728;9.140;2022-09-01T20:09:44;5.17;;;4.67;;
763;SDS011;5393;48.728;9.140;2022-09-01T20:12:36;9.43;;;8.43;;